Time;durP1;ratioP1;P1;durP2;ratioP2;P2;SDS_P1;SDS_P2;PMS_P1;PMS_P2;Temp;Humidity;BMP_temperature;BMP_pressure;BME280_temperature;BME280_humidity;BME280_pressure;Samples;Min_cycle;Max_cycle;Signal;HPM_P1;HPM_P2
2022/07/09 00:00:06;;;;;;;7.70;2.30;;;;;;;16.44;66.53;101152.31;107884;1287;23691;-84
2022/07/09 00:03:42;;;;;;;;;;;;;;;;;;;;;
2022/07/09 00:07:48;;;;;;;;;;;;;;;;;;;;;
2022/07/09 00:11:58;;;;;;;;;;;;;;;;;;;;;
2022/07/09 00:15:43;;;;;;;;;;;;;;;;;;;;;
2022/07/09 00:19:44;;;;;;;;;;;;;;;;;;;;;
2022/07/09 00:23:30;;;;;;;8.80;3.00;;;;;;;16.42;65.97;101165.91;107455;1290;23792;-81
2022/07/09 00:29:48;;;;;;;5.80;2.40;;;;;;;16.39;65.78;101171.61;107233;1291;22043;-82
2022/07/09 00:33:46;;;;;;;;;;;;;;;;;;;;;
2022/07/09 00:36:46;;;;;;;;;;;;;;;;;;;;;
2022/07/09 00:39:37;;;;;;;6.80;2.80;;;;;;;16.30;66.08;101157.99;107686;1287;24660;-84
2022/07/09 00:43:53;;;;;;;7.00;2.80;;;;;;;16.27;66.05;101156.02;108330;1279;24444;-83
2022/07/09 00:47:28;;;;;;;;;;;;;;;;;;;;;
2022/07/09 00:50:08;;;;;;;;;;;;;;;;;;;;;
2022/07/09 00:53:18;;;;;;;6.70;2.30;;;;;;;16.18;66.19;101148.70;107351;1287;23634;-83
2022/07/09 01:00:18;;;;;;;;;;;;;;;;;;;;;
2022/07/09 01:03:59;;;;;;;;;;;;;;;;;;;;;
2022/07/09 01:06:58;;;;;;;5.40;2.10;;;;;;;15.98;66.22;101142.23;107622;1287;23137;-83
2022/07/09 01:10:23;;;;;;;8.80;2.70;;;;;;;15.96;66.26;101143.15;107506;1289;22001;-82
2022/07/09 01:13:12;;;;;;;;;;;;;;;;;;;;;
2022/07/09 01:17:22;;;;;;;;;;;;;;;;;;;;;
2022/07/09 01:20:48;;;;;;;;;;;;;;;;;;;;;
2022/07/09 01:23:55;;;;;;;8.70;2.70;;;;;;;15.83;66.44;101133.95;107234;1287;21997;-83
2022/07/09 01:26:44;;;;;;;8.30;2.80;;;;;;;15.83;66.68;101132.30;108104;1281;23068;-83
2022/07/09 01:29:49;;;;;;;7.40;2.70;;;;;;;15.83;66.87;101130.21;108200;1281;23671;-83
2022/07/09 01:33:34;;;;;;;7.60;3.40;;;;;;;15.82;66.83;101126.30;108162;1281;22042;-82
2022/07/09 01:36:26;;;;;;;;;;;;;;;;;;;;;
2022/07/09 01:40:01;;;;;;;7.30;3.50;;;;;;;15.81;67.14;101122.34;108155;1281;23704;-81
2022/07/09 01:47:40;;;;;;;;;;;;;;;;;;;;;
2022/07/09 01:55:49;;;;;;;;;;;;;;;;;;;;;
2022/07/09 02:00:14;;;;;;;7.00;3.50;;;;;;;15.82;67.20;101118.31;104897;1295;3036629;-81
2022/07/09 02:03:28;;;;;;;;;;;;;;;;;;;;;
2022/07/09 02:06:24;;;;;;;;;;;;;;;;;;;;;
2022/07/09 02:09:43;;;;;;;;;;;;;;;;;;;;;
2022/07/09 02:12:48;;;;;;;11.90;3.90;;;;;;;15.81;67.11;101107.85;106612;1296;22017;-82
2022/07/09 02:16:04;;;;;;;;;;;;;;;;;;;;;
2022/07/09 02:20:29;;;;;;;;;;;;;;;;;;;;;
2022/07/09 02:24:02;;;;;;;;;;;;;;;;;;;;;
2022/07/09 02:27:06;;;;;;;;;;;;;;;;;;;;;
2022/07/09 02:31:14;;;;;;;;;;;;;;;;;;;;;
2022/07/09 02:34:33;;;;;;;7.70;3.40;;;;;;;15.57;68.02;101089.64;107270;1291;24397;-82
2022/07/09 02:38:10;;;;;;;;;;;;;;;;;;;;;
2022/07/09 02:41:58;;;;;;;;;;;;;;;;;;;;;
2022/07/09 02:46:07;;;;;;;;;;;;;;;;;;;;;
2022/07/09 02:49:24;;;;;;;;;;;;;;;;;;;;;
2022/07/09 02:53:13;;;;;;;5.20;3.20;;;;;;;15.47;68.75;101074.30;107508;1287;22004;-81
2022/07/09 02:55:34;;;;;;;7.90;3.70;;;;;;;15.51;68.86;101072.98;107883;1284;22890;-81
2022/07/09 02:59:45;;;;;;;;;;;;;;;;;;;;;
2022/07/09 03:03:26;;;;;;;;;;;;;;;;;;;;;
2022/07/09 03:07:32;;;;;;;;;;;;;;;;;;;;;
2022/07/09 03:11:32;;;;;;;;;;;;;;;;;;;;;
2022/07/09 03:14:27;;;;;;;;;;;;;;;;;;;;;
2022/07/09 03:18:10;;;;;;;;;;;;;;;;;;;;;
2022/07/09 03:21:11;;;;;;;8.80;3.30;;;;;;;15.76;68.69;101054.50;107043;1294;23691;-82
2022/07/09 03:24:57;;;;;;;;;;;;;;;;;;;;;
2022/07/09 03:31:33;;;;;;;;;;;;;;;;;;;;;
2022/07/09 03:34:26;;;;;;;;;;;;;;;;;;;;;
2022/07/09 03:37:25;;;;;;;;;;;;;;;;;;;;;
2022/07/09 03:40:37;;;;;;;;;;;;;;;;;;;;;
2022/07/09 03:43:48;;;;;;;10.60;4.90;;;;;;;15.96;67.82;101031.48;106663;1294;22041;-84
2022/07/09 03:47:08;;;;;;;7.60;3.30;;;;;;;15.98;67.75;101030.48;107670;1288;22027;-84
2022/07/09 03:50:38;;;;;;;6.80;2.90;;;;;;;15.99;67.53;101031.27;107773;1285;22020;-81
2022/07/09 03:53:31;;;;;;;;;;;;;;;;;;;;;
2022/07/09 03:56:42;;;;;;;;;;;;;;;;;;;;;
2022/07/09 03:59:58;;;;;;;10.60;3.70;;;;;;;16.03;67.34;101029.62;108981;1273;23005;-83
2022/07/09 04:03:33;;;;;;;8.00;3.10;;;;;;;16.04;67.38;101030.42;108541;1278;23603;-82
2022/07/09 04:06:59;;;;;;;13.80;3.80;;;;;;;16.05;67.19;101032.23;108528;1280;22208;-82
2022/07/09 04:14:37;;;;;;;8.60;3.40;;;;;;;16.04;66.97;101033.50;108616;1276;23077;-83
2022/07/09 04:21:03;;;;;;;6.90;3.70;;;;;;;16.04;66.88;101033.67;108011;1286;22988;-83
2022/07/09 04:28:33;;;;;;;;;;;;;;;;;;;;;
2022/07/09 04:30:58;;;;;;;;;;;;;;;;;;;;;
2022/07/09 04:34:45;;;;;;;;;;;;;;;;;;;;;
2022/07/09 04:37:44;;;;;;;11.00;4.80;;;;;;;16.21;67.02;101025.77;108406;1277;22607;-82
2022/07/09 04:40:56;;;;;;;8.40;3.60;;;;;;;16.31;67.03;101018.10;108169;1279;23623;-83
2022/07/09 04:44:48;;;;;;;;;;;;;;;;;;;;;
2022/07/09 04:48:39;;;;;;;7.60;3.50;;;;;;;16.45;66.78;101019.69;108335;1283;23175;-82
2022/07/09 04:52:17;;;;;;;11.60;4.10;;;;;;;16.56;66.65;101020.96;107828;1289;23079;-84
2022/07/09 04:55:11;;;;;;;;;;;;;;;;;;;;;
2022/07/09 04:58:07;;;;;;;10.20;3.60;;;;;;;16.63;65.79;101017.10;108084;1280;21882;-82
2022/07/09 05:01:44;;;;;;;;;;;;;;;;;;;;;
2022/07/09 05:05:27;;;;;;;;;;;;;;;;;;;;;
2022/07/09 05:08:57;;;;;;;;;;;;;;;;;;;;;
2022/07/09 05:12:43;;;;;;;;;;;;;;;;;;;;;
2022/07/09 05:16:47;;;;;;;;;;;;;;;;;;;;;
2022/07/09 05:21:26;;;;;;;;;;;;;;;;;;;;;
2022/07/09 05:24:47;;;;;;;;;;;;;;;;;;;;;
2022/07/09 05:28:08;;;;;;;6.50;3.60;;;;;;;17.68;65.46;101006.42;108913;1271;21962;-84
2022/07/09 05:31:31;;;;;;;8.40;3.60;;;;;;;17.91;64.82;101013.46;108528;1279;22793;-84
2022/07/09 05:34:30;;;;;;;7.10;3.40;;;;;;;18.04;63.96;101018.29;108351;1279;22271;-83
2022/07/09 05:37:44;;;;;;;6.40;3.20;;;;;;;18.15;63.59;101015.45;108584;1274;22752;-83
2022/07/09 05:41:07;;;;;;;7.40;3.30;;;;;;;18.23;63.11;101012.14;108835;1276;22102;-83
2022/07/09 05:44:12;;;;;;;6.70;3.70;;;;;;;18.27;62.72;101013.96;108484;1279;23131;-83
2022/07/09 05:47:10;;;;;;;8.30;3.70;;;;;;;18.33;62.76;101009.77;108470;1279;22412;-84
2022/07/09 05:50:03;;;;;;;5.80;3.30;;;;;;;18.43;62.60;101006.20;108597;1279;23728;-85
2022/07/09 05:53:00;;;;;;;9.00;3.50;;;;;;;18.54;62.46;101002.98;108376;1279;23660;-83
2022/07/09 05:55:50;;;;;;;5.20;2.90;;;;;;;18.69;62.54;101003.16;108070;1285;22019;-82
2022/07/09 05:58:29;;;;;;;12.00;4.40;;;;;;;18.89;62.72;101003.63;108116;1282;22336;-83
2022/07/09 06:01:13;;;;;;;;;;;;;;;;;;;;;
2022/07/09 06:04:04;;;;;;;9.90;3.40;;;;;;;19.25;61.19;101004.84;109559;1263;21981;-84
2022/07/09 06:08:31;;;;;;;;;;;;;;;;;;;;;
2022/07/09 06:12:09;;;;;;;;;;;;;;;;;;;;;
2022/07/09 06:15:31;;;;;;;7.00;3.40;;;;;;;19.63;59.59;100999.52;109457;1267;21989;-82
2022/07/09 06:20:45;;;;;;;;;;;;;;;;;;;;;
2022/07/09 06:24:11;;;;;;;;;;;;;;;;;;;;;
2022/07/09 06:27:59;;;;;;;7.50;3.20;;;;;;;19.93;59.02;100991.45;108203;1285;22095;-84
2022/07/09 06:30:50;;;;;;;5.70;3.10;;;;;;;20.00;58.26;100988.98;108247;1285;22068;-82
2022/07/09 06:33:30;;;;;;;5.60;3.00;;;;;;;20.02;57.84;100995.85;108268;1285;23851;-82
2022/07/09 06:36:58;;;;;;;6.00;3.00;;;;;;;19.99;57.59;100995.38;108289;1279;22012;-83
2022/07/09 06:39:48;;;;;;;8.00;3.10;;;;;;;20.12;58.44;100997.04;108178;1285;22162;-83
2022/07/09 06:42:30;;;;;;;6.00;3.10;;;;;;;20.15;57.37;100993.98;108333;1279;21988;-85
2022/07/09 06:45:36;;;;;;;5.40;2.90;;;;;;;20.12;57.43;100996.70;108465;1276;22028;-84
2022/07/09 06:49:33;;;;;;;5.90;3.00;;;;;;;20.20;57.55;100991.91;108761;1273;21993;-84
2022/07/09 06:52:41;;;;;;;7.00;2.40;;;;;;;20.20;57.03;100992.73;108737;1273;21994;-80
2022/07/09 06:55:37;;;;;;;;;;;;;;;;;;;;;
2022/07/09 06:58:31;;;;;;;5.90;2.30;;;;;;;20.17;55.95;100985.38;108711;1273;22010;-84
2022/07/09 07:02:34;;;;;;;;;;;;;;;;;;;;;
2022/07/09 07:07:07;;;;;;;;;;;;;;;;;;;;;
2022/07/09 07:11:16;;;;;;;8.40;2.80;;;;;;;20.53;56.04;100987.63;109460;1263;23697;-85
2022/07/09 07:14:46;;;;;;;;;;;;;;;;;;;;;
2022/07/09 07:18:28;;;;;;;;;;;;;;;;;;;;;
2022/07/09 07:22:30;;;;;;;;;;;;;;;;;;;;;
2022/07/09 07:25:43;;;;;;;;;;;;;;;;;;;;;
2022/07/09 07:29:05;;;;;;;10.10;2.60;;;;;;;22.19;49.08;100982.48;107912;1286;544251;-84
2022/07/09 07:32:48;;;;;;;7.40;2.10;;;;;;;21.80;49.33;100980.84;109424;1267;22107;-81
2022/07/09 07:35:48;;;;;;;;;;;;;;;21.59;50.25;100980.23;109337;1266;21953;-82
2022/07/09 07:38:20;;;;;;;6.20;2.40;;;;;;;21.46;50.80;100979.85;109431;1266;21990;-83
2022/07/09 07:40:57;;;;;;;5.50;2.30;;;;;;;21.36;50.71;100979.02;109401;1266;21977;-83
2022/07/09 07:43:34;;;;;;;4.50;2.10;;;;;;;21.24;50.84;100983.48;109700;1260;254825;-82
2022/07/09 07:46:06;;;;;;;4.40;2.20;;;;;;;21.14;50.91;100981.36;110123;1260;22761;-81
2022/07/09 07:48:42;;;;;;;4.30;1.80;;;;;;;21.08;51.20;100986.55;109636;1263;22435;-85
2022/07/09 07:51:26;;;;;;;4.10;1.80;;;;;;;21.01;51.10;100985.57;109885;1260;22132;-83
2022/07/09 07:53:59;;;;;;;5.30;2.40;;;;;;;20.89;50.98;100984.28;109131;1267;21985;-82
2022/07/09 07:56:32;;;;;;;5.40;2.30;;;;;;;20.76;51.16;100984.05;109347;1267;21986;-83
2022/07/09 07:59:03;;;;;;;9.20;2.20;;;;;;;20.65;51.16;100983.30;109407;1267;21998;-83
2022/07/09 08:01:47;;;;;;;3.80;1.70;;;;;;;20.55;51.30;100983.95;109236;1267;21972;-84
2022/07/09 08:04:40;;;;;;;;;;;;;;;;;;;;;
2022/07/09 08:07:48;;;;;;;6.20;2.10;;;;;;;20.41;51.45;100977.98;109504;1267;21969;-85
2022/07/09 08:10:38;;;;;;;4.00;1.90;;;;;;;20.34;51.41;100976.73;109439;1267;21985;-85
2022/07/09 08:13:16;;;;;;;5.60;2.00;;;;;;;20.31;51.36;100976.45;109774;1263;23772;-86
2022/07/09 08:15:56;;;;;;;4.90;1.80;;;;;;;20.29;51.49;100978.15;109917;1263;22601;-86
2022/07/09 08:18:43;;;;;;;5.60;2.10;;;;;;;20.21;51.37;100979.36;110304;1257;21963;-87
2022/07/09 08:21:15;;;;;;;3.00;1.80;;;;;;;20.13;51.55;100977.48;110268;1257;22046;-84
2022/07/09 08:23:54;;;;;;;5.00;2.10;;;;;;;20.11;52.01;100976.17;110565;1257;21972;-84
2022/07/09 08:26:53;;;;;;;6.00;2.50;;;;;;;20.15;51.75;100974.45;110693;1257;21949;-85
2022/07/09 08:29:57;;;;;;;6.20;2.60;;;;;;;20.09;51.15;100968.42;110606;1260;21974;-85
2022/07/09 08:33:00;;;;;;;6.00;2.20;;;;;;;20.06;51.72;100974.95;110762;1260;21970;-85
2022/07/09 08:35:57;;;;;;;5.20;2.10;;;;;;;20.16;51.82;100979.27;110498;1257;22266;-84
2022/07/09 08:38:29;;;;;;;4.00;1.70;;;;;;;20.27;51.44;100974.49;110594;1257;23526;-85
2022/07/09 08:41:04;;;;;;;6.10;2.50;;;;;;;20.36;51.14;100969.98;110612;1257;23603;-82
2022/07/09 08:43:38;;;;;;;5.50;1.50;;;;;;;20.42;50.70;100963.53;110217;1257;23066;-84
2022/07/09 08:46:21;;;;;;;6.30;1.70;;;;;;;20.43;50.39;100967.27;110841;1251;22016;-85
2022/07/09 08:48:58;;;;;;;5.90;1.70;;;;;;;20.48;50.26;100966.85;111122;1250;23036;-82
2022/07/09 08:51:30;;;;;;;4.70;1.70;;;;;;;20.56;49.61;100962.73;110449;1257;22976;-82
2022/07/09 08:54:03;;;;;;;4.90;1.70;;;;;;;20.59;49.11;100962.41;109581;1263;22061;-82
2022/07/09 08:56:46;;;;;;;9.50;3.40;;;;;;;20.62;49.07;100965.89;109457;1264;21969;-76
2022/07/09 08:59:15;;;;;;;5.90;2.80;;;;;;;20.70;48.68;100964.67;109274;1266;22041;-78
2022/07/09 09:01:45;;;;;;;10.50;3.50;;;;;;;20.77;48.68;100962.34;109330;1267;23600;-78
2022/07/09 09:04:14;;;;;;;5.70;1.90;;;;;;;20.86;48.34;100955.80;109334;1267;22948;-78
2022/07/09 09:06:44;;;;;;;8.40;2.40;;;;;;;20.88;48.02;100952.20;108942;1271;22284;-82
2022/07/09 09:09:22;;;;;;;14.20;2.50;;;;;;;20.93;48.11;100951.16;108489;1275;22009;-81
2022/07/09 09:11:52;;;;;;;3.20;1.70;;;;;;;20.97;47.66;100951.56;108447;1273;22059;-75
2022/07/09 09:14:22;;;;;;;3.60;1.80;;;;;;;21.10;48.13;100952.83;108734;1273;22001;-77
2022/07/09 09:16:52;;;;;;;7.40;1.60;;;;;;;21.31;47.37;100952.97;108441;1273;24174;-76
2022/07/09 09:19:25;;;;;;;3.20;1.40;;;;;;;21.46;46.26;100950.58;108973;1270;21982;-76
2022/07/09 09:21:54;;;;;;;5.90;1.50;;;;;;;21.62;45.85;100946.04;108602;1273;23056;-76
2022/07/09 09:24:26;;;;;;;4.40;1.60;;;;;;;21.79;45.27;100946.11;108722;1270;23705;-76
2022/07/09 09:27:00;;;;;;;5.00;2.20;;;;;;;22.02;45.25;100943.83;109017;1267;22014;-80
2022/07/09 09:29:33;;;;;;;3.00;1.60;;;;;;;22.29;44.80;100948.48;109264;1267;23994;-82
2022/07/09 09:32:15;;;;;;;5.20;2.10;;;;;;;22.56;43.83;100946.43;109249;1264;21998;-82
2022/07/09 09:34:51;;;;;;;7.80;2.80;;;;;;;22.74;42.91;100937.30;110259;1257;21975;-80
2022/07/09 09:37:31;;;;;;;5.70;2.00;;;;;;;22.89;43.02;100940.23;110370;1257;21959;-80
2022/07/09 09:40:14;;;;;;;17.60;4.20;;;;;;;23.20;42.64;100942.05;110442;1253;21961;-78
2022/07/09 09:43:07;;;;;;;6.20;1.90;;;;;;;23.50;41.83;100936.30;110759;1254;22821;-79
2022/07/09 09:46:10;;;;;;;5.50;2.10;;;;;;;23.59;40.92;100935.46;110559;1256;23700;-87
2022/07/09 09:48:50;;;;;;;17.10;4.00;;;;;;;23.49;40.63;100933.66;110523;1254;22528;-79
2022/07/09 09:51:22;;;;;;;33.40;9.10;;;;;;;23.60;41.02;100927.50;110417;1255;22082;-79
2022/07/09 09:53:54;;;;;;;5.30;2.00;;;;;;;23.72;41.03;100916.91;110414;1257;21966;-78
2022/07/09 09:56:25;;;;;;;7.20;2.70;;;;;;;23.83;40.49;100914.63;110215;1255;23736;-77
2022/07/09 09:58:55;;;;;;;6.20;2.20;;;;;;;23.78;39.67;100909.52;110240;1257;22071;-79
2022/07/09 10:01:27;;;;;;;9.00;2.30;;;;;;;23.72;39.95;100907.27;110135;1257;21972;-79
2022/07/09 10:03:57;;;;;;;8.00;1.70;;;;;;;23.62;39.50;100906.23;110089;1258;22741;-79
2022/07/09 10:06:27;;;;;;;5.40;1.90;;;;;;;23.41;39.19;100901.23;110087;1257;22794;-80
2022/07/09 10:09:05;;;;;;;5.50;2.30;;;;;;;23.15;39.70;100904.37;110317;1257;21975;-80
2022/07/09 10:11:49;;;;;;;5.70;1.50;;;;;;;23.05;40.52;100900.66;109637;1263;22183;-81
2022/07/09 10:14:45;;;;;;;3.90;1.70;;;;;;;22.99;40.20;100890.79;109985;1261;22974;-81
2022/07/09 10:17:20;;;;;;;5.30;1.70;;;;;;;22.84;40.17;100889.67;109522;1267;22006;-81
2022/07/09 10:19:53;;;;;;;4.50;1.40;;;;;;;22.75;40.97;100885.20;109065;1270;23074;-80
2022/07/09 10:22:39;;;;;;;3.00;1.40;;;;;;;23.00;41.95;100884.96;108530;1273;22003;-80
2022/07/09 10:25:29;;;;;;;5.10;2.70;;;;;;;23.26;40.74;100885.29;108508;1279;22588;-81
2022/07/09 10:28:01;;;;;;;4.70;2.00;;;;;;;23.28;39.91;100887.43;108691;1275;22079;-79
2022/07/09 10:30:35;;;;;;;4.30;1.40;;;;;;;23.31;40.28;100887.30;108758;1275;21986;-80
2022/07/09 10:33:19;;;;;;;3.30;1.40;;;;;;;23.42;39.91;100881.70;108664;1273;23694;-79
2022/07/09 10:35:52;;;;;;;2.80;1.20;;;;;;;23.37;39.25;100881.27;108722;1270;23066;-80
2022/07/09 10:38:42;;;;;;;3.30;1.30;;;;;;;23.34;39.43;100880.57;108740;1267;22020;-79
2022/07/09 10:41:24;;;;;;;3.40;1.20;;;;;;;23.30;39.58;100877.89;109283;1267;21986;-80
2022/07/09 10:43:56;;;;;;;3.20;1.30;;;;;;;23.36;39.54;100880.77;109517;1262;23069;-77
2022/07/09 10:46:28;;;;;;;5.20;1.40;;;;;;;23.27;39.36;100884.25;109886;1263;22766;-81
2022/07/09 10:48:59;;;;;;;6.60;2.00;;;;;;;23.13;39.41;100876.25;109462;1260;23059;-81
2022/07/09 10:51:43;;;;;;;5.70;1.40;;;;;;;22.95;39.54;100873.73;109547;1263;22706;-81
2022/07/09 10:54:46;;;;;;;4.10;1.60;;;;;;;22.74;39.76;100871.13;109269;1263;22019;-78
2022/07/09 10:57:15;;;;;;;4.70;1.70;;;;;;;22.62;40.06;100872.60;109506;1262;22422;-80
2022/07/09 10:59:53;;;;;;;3.40;1.50;;;;;;;22.54;40.13;100868.75;109610;1260;23687;-78
2022/07/09 11:02:27;;;;;;;4.10;1.00;;;;;;;22.42;39.73;100866.89;109649;1263;23680;-80
2022/07/09 11:05:01;;;;;;;2.60;1.10;;;;;;;22.31;40.25;100865.67;109838;1261;21970;-79
2022/07/09 11:07:32;;;;;;;3.50;1.80;;;;;;;22.29;40.39;100864.77;109820;1261;21971;-80
2022/07/09 11:10:07;;;;;;;7.20;2.40;;;;;;;22.22;40.50;100855.23;109644;1260;21999;-79
2022/07/09 11:12:48;;;;;;;2.80;1.30;;;;;;;22.22;41.11;100857.30;109322;1261;23800;-79
2022/07/09 11:15:37;;;;;;;6.70;1.50;;;;;;;22.31;40.97;100854.39;108995;1270;23680;-79
2022/07/09 11:18:18;;;;;;;3.40;1.50;;;;;;;22.39;40.84;100854.52;109499;1262;22003;-80
2022/07/09 11:21:11;;;;;;;3.10;1.00;;;;;;;22.54;40.93;100857.38;109713;1263;21972;-80
2022/07/09 11:24:04;;;;;;;3.20;1.30;;;;;;;22.63;40.40;100857.33;109694;1263;23708;-80
2022/07/09 11:26:48;;;;;;;4.60;1.00;;;;;;;22.58;39.92;100863.39;109376;1263;23078;-80
2022/07/09 11:29:28;;;;;;;2.90;1.60;;;;;;;22.47;39.87;100858.20;109594;1262;23615;-81
2022/07/09 11:32:17;;;;;;;2.70;1.10;;;;;;;22.35;39.85;100855.75;110051;1257;22439;-81
2022/07/09 11:34:58;;;;;;;4.90;2.00;;;;;;;22.24;40.18;100855.45;110767;1253;21999;-79
2022/07/09 11:37:33;;;;;;;3.40;1.30;;;;;;;22.19;40.65;100856.73;110445;1254;23210;-80
2022/07/09 11:40:19;;;;;;;2.60;1.60;;;;;;;22.22;40.70;100858.42;110404;1254;21966;-79
2022/07/09 11:42:54;;;;;;;3.90;1.60;;;;;;;22.23;40.30;100859.36;110389;1256;21962;-80
2022/07/09 11:45:40;;;;;;;7.90;1.70;;;;;;;22.28;40.77;100858.73;110630;1254;23585;-79
2022/07/09 11:48:14;;;;;;;3.00;1.20;;;;;;;22.39;40.83;100857.09;109981;1261;23753;-81
2022/07/09 11:50:45;;;;;;;3.00;1.40;;;;;;;22.43;40.53;100856.27;109854;1261;22074;-80
2022/07/09 11:53:25;;;;;;;3.60;1.30;;;;;;;22.50;40.32;100862.23;109529;1261;23793;-79
2022/07/09 11:56:09;;;;;;;3.30;1.40;;;;;;;22.53;40.08;100861.20;109789;1260;22739;-81
2022/07/09 11:58:49;;;;;;;5.70;1.30;;;;;;;22.49;39.56;100860.98;109170;1267;22035;-79
2022/07/09 12:01:53;;;;;;;6.60;1.30;;;;;;;22.39;39.87;100859.67;109279;1267;23059;-79
2022/07/09 12:04:59;;;;;;;6.40;1.80;;;;;;;22.33;40.22;100861.20;109441;1264;23766;-80
2022/07/09 12:08:05;;;;;;;;;;;;;;;;;;;;;
2022/07/09 12:10:53;;;;;;;5.00;1.20;;;;;;;22.22;40.31;100858.13;109495;1265;22039;-80
2022/07/09 12:13:26;;;;;;;3.80;1.10;;;;;;;22.19;40.12;100858.88;110023;1256;23608;-81
2022/07/09 12:16:10;;;;;;;6.90;1.10;;;;;;;22.14;40.36;100852.98;110336;1251;21962;-79
2022/07/09 12:18:56;;;;;;;;;;;;;;;;;;;;;
2022/07/09 12:21:59;;;;;;;3.90;1.50;;;;;;;22.12;40.71;100854.55;110601;1256;22068;-82
2022/07/09 12:24:42;;;;;;;4.70;1.80;;;;;;;22.07;40.42;100854.73;109291;1261;21982;-81
2022/07/09 12:27:47;;;;;;;4.20;1.60;;;;;;;22.02;40.82;100854.18;109605;1260;23739;-79
2022/07/09 12:30:43;;;;;;;6.60;1.60;;;;;;;21.94;40.62;100854.11;109852;1261;21970;-80
2022/07/09 12:33:48;;;;;;;6.40;1.60;;;;;;;21.90;41.04;100852.60;109640;1260;23849;-77
2022/07/09 12:36:48;;;;;;;8.40;1.70;;;;;;;21.91;40.70;100850.77;109534;1260;21985;-80
2022/07/09 12:39:34;;;;;;;4.20;1.40;;;;;;;21.88;40.28;100844.56;109336;1264;21982;-80
2022/07/09 12:42:06;;;;;;;3.30;1.70;;;;;;;21.88;40.08;100839.30;109319;1260;21987;-79
2022/07/09 12:44:36;;;;;;;3.20;1.50;;;;;;;21.91;39.99;100840.02;109530;1261;21992;-79
2022/07/09 12:47:10;;;;;;;8.60;2.00;;;;;;;21.86;39.72;100844.14;109753;1262;21975;-80
2022/07/09 12:49:54;;;;;;;5.50;1.40;;;;;;;21.79;39.91;100842.47;109399;1266;22067;-80
2022/07/09 12:53:06;;;;;;;4.60;1.50;;;;;;;21.74;40.36;100839.29;109065;1270;22755;-80
2022/07/09 12:56:06;;;;;;;3.00;1.60;;;;;;;21.74;40.47;100843.16;109240;1266;22045;-80
2022/07/09 12:59:07;;;;;;;5.50;1.60;;;;;;;21.69;40.26;100838.07;109517;1265;21981;-80
2022/07/09 13:02:02;;;;;;;4.50;1.90;;;;;;;21.67;40.55;100833.67;109154;1265;22250;-80
2022/07/09 13:05:17;;;;;;;;;;;;;;;;;;;;;
2022/07/09 13:07:54;;;;;;;6.60;1.70;;;;;;;21.76;40.71;100826.85;108592;1277;22024;-80
2022/07/09 13:10:31;;;;;;;4.90;1.50;;;;;;;21.80;40.59;100818.50;108407;1276;21992;-80
2022/07/09 13:13:30;;;;;;;3.20;1.10;;;;;;;21.83;40.70;100814.27;108575;1276;22012;-81
2022/07/09 13:16:24;;;;;;;8.30;1.80;;;;;;;21.91;40.88;100813.23;108255;1279;22800;-81
2022/07/09 13:19:21;;;;;;;;;;;;;;;;;;;;;
2022/07/09 13:22:10;;;;;;;3.50;1.60;;;;;;;22.05;40.89;100806.48;108021;1281;22492;-80
2022/07/09 13:24:58;;;;;;;4.60;1.70;;;;;;;22.12;41.12;100805.61;108107;1279;22267;-79
2022/07/09 13:27:58;;;;;;;5.80;2.00;;;;;;;22.20;41.03;100803.35;108567;1270;24513;-80
2022/07/09 13:31:05;;;;;;;3.10;1.70;;;;;;;22.15;40.57;100799.08;109639;1263;21987;-80
2022/07/09 13:34:24;;;;;;;9.00;2.10;;;;;;;22.04;40.56;100799.69;109644;1263;22027;-81
2022/07/09 13:37:35;;;;;;;3.40;1.50;;;;;;;21.92;40.32;100790.61;109889;1256;22101;-79
2022/07/09 13:40:13;;;;;;;3.60;2.40;;;;;;;21.85;40.68;100791.15;110393;1250;22106;-80
2022/07/09 13:43:36;;;;;;;5.10;1.30;;;;;;;21.84;40.66;100786.17;110955;1250;21974;-80
2022/07/09 13:46:50;;;;;;;3.40;1.20;;;;;;;21.87;40.71;100784.79;110259;1256;23604;-80
2022/07/09 13:50:17;;;;;;;2.50;1.10;;;;;;;21.84;40.51;100779.66;110145;1260;22871;-82
2022/07/09 13:53:22;;;;;;;5.10;1.40;;;;;;;21.81;40.53;100781.31;109912;1260;23464;-80
2022/07/09 13:56:13;;;;;;;3.00;1.40;;;;;;;21.86;40.46;100780.09;109539;1261;22278;-81
2022/07/09 13:58:58;;;;;;;3.10;1.20;;;;;;;21.87;40.47;100771.77;109619;1260;21979;-79
2022/07/09 14:02:08;;;;;;;4.20;1.50;;;;;;;21.86;40.35;100765.94;110221;1260;22187;-79
2022/07/09 14:05:09;;;;;;;9.70;1.80;;;;;;;21.87;40.16;100763.48;110419;1253;23714;-80
2022/07/09 14:07:47;;;;;;;3.90;1.40;;;;;;;21.88;40.04;100762.42;110069;1256;22004;-80
2022/07/09 14:10:42;;;;;;;5.10;1.10;;;;;;;21.89;40.01;100759.72;110292;1257;21974;-80
2022/07/09 14:13:48;;;;;;;2.10;0.80;;;;;;;21.91;40.19;100755.63;110608;1256;23073;-82
2022/07/09 14:16:25;;;;;;;3.40;1.50;;;;;;;21.92;40.22;100746.44;110498;1256;23585;-81
2022/07/09 14:19:19;;;;;;;3.50;1.20;;;;;;;21.97;40.46;100742.83;109792;1263;22728;-81
2022/07/09 14:22:15;;;;;;;2.80;1.30;;;;;;;22.10;40.50;100742.89;109843;1261;23086;-80
2022/07/09 14:25:31;;;;;;;;;;;;;;;;;;;;;
2022/07/09 14:28:26;;;;;;;3.30;1.10;;;;;;;22.18;39.45;100734.00;109046;1270;22859;-81
2022/07/09 14:31:06;;;;;;;3.70;1.10;;;;;;;22.11;39.62;100726.13;108431;1279;22584;-80
2022/07/09 14:34:27;;;;;;;1.70;0.90;;;;;;;22.13;40.13;100720.61;108771;1273;22450;-80
2022/07/09 14:37:51;;;;;;;;;;;;;;;;;;;;;
2022/07/09 14:41:32;;;;;;;2.90;1.30;;;;;;;22.14;40.16;100717.54;108770;1273;22281;-81
2022/07/09 14:44:30;;;;;;;2.30;1.10;;;;;;;22.14;40.09;100712.32;108751;1274;22251;-81
2022/07/09 14:47:09;;;;;;;3.30;1.20;;;;;;;22.15;40.28;100712.19;108631;1270;21975;-80
2022/07/09 14:50:02;;;;;;;2.30;1.30;;;;;;;22.13;40.24;100706.42;109147;1267;21979;-81
2022/07/09 14:52:51;;;;;;;3.90;1.00;;;;;;;22.07;40.50;100708.09;108932;1271;22069;-80
2022/07/09 14:56:00;;;;;;;3.80;1.20;;;;;;;22.08;40.65;100707.61;109062;1267;21991;-81
2022/07/09 14:58:47;;;;;;;4.80;1.30;;;;;;;22.12;40.71;100703.06;109313;1267;22092;-81
2022/07/09 15:01:50;;;;;;;3.00;1.20;;;;;;;22.15;40.43;100703.46;109142;1267;22840;-81
2022/07/09 15:04:41;;;;;;;2.30;1.10;;;;;;;22.17;40.06;100697.96;108989;1270;22027;-81
2022/07/09 15:07:42;;;;;;;3.00;1.40;;;;;;;22.22;39.93;100697.27;109270;1261;22838;-79
2022/07/09 15:10:27;;;;;;;2.00;1.20;;;;;;;22.27;39.98;100695.83;109696;1257;21994;-79
2022/07/09 15:13:38;;;;;;;1.70;0.90;;;;;;;22.29;39.90;100691.39;109962;1258;22838;-80
2022/07/09 15:16:39;;;;;;;2.60;1.20;;;;;;;22.31;39.69;100688.96;110617;1257;21967;-81
2022/07/09 15:20:06;;;;;;;1.80;1.00;;;;;;;22.26;39.62;100688.38;110535;1257;21953;-81
2022/07/09 15:22:38;;;;;;;2.50;0.80;;;;;;;22.22;39.43;100684.80;110707;1250;22060;-80
2022/07/09 15:25:37;;;;;;;;;;;;;;;;;;;;;
2022/07/09 15:28:59;;;;;;;;;;;;;;;;;;;;;
2022/07/09 15:31:59;;;;;;;4.20;1.40;;;;;;;22.11;39.18;100678.46;110547;1256;22005;-80
2022/07/09 15:35:22;;;;;;;2.20;1.20;;;;;;;22.11;39.48;100668.86;110335;1256;22033;-80
2022/07/09 15:38:31;;;;;;;2.30;0.70;;;;;;;22.16;39.51;100665.39;110551;1257;22396;-80
2022/07/09 15:41:26;;;;;;;2.80;1.20;;;;;;;22.15;39.51;100664.99;110011;1260;22024;-81
2022/07/09 15:44:27;;;;;;;2.30;1.10;;;;;;;22.14;39.57;100661.12;109902;1262;21967;-82
2022/07/09 15:47:14;;;;;;;3.40;1.20;;;;;;;22.09;39.63;100654.99;109583;1262;21990;-81
2022/07/09 15:50:20;;;;;;;2.70;1.00;;;;;;;22.01;39.56;100652.41;109420;1264;21975;-79
2022/07/09 15:53:30;;;;;;;2.20;1.10;;;;;;;21.99;40.02;100643.85;109495;1263;21971;-82
2022/07/09 15:56:52;;;;;;;;;;;;;;;;;;;;;
2022/07/09 16:00:02;;;;;;;;;;;;;;;;;;;;;
2022/07/09 16:03:54;;;;;;;;;;;;;;;;;;;;;
2022/07/09 16:06:59;;;;;;;;;;;;;;;;;;;;;
2022/07/09 16:10:04;;;;;;;1.60;0.90;;;;;;;21.95;40.14;100622.64;109205;1267;22044;-80
2022/07/09 16:13:05;;;;;;;3.80;1.30;;;;;;;21.91;40.37;100614.95;109172;1267;21991;-80
2022/07/09 16:16:36;;;;;;;2.80;1.20;;;;;;;21.84;40.62;100618.95;109185;1266;22390;-80
2022/07/09 16:19:55;;;;;;;4.30;1.40;;;;;;;21.75;40.75;100621.66;109740;1261;21971;-81
2022/07/09 16:22:35;;;;;;;6.80;2.80;;;;;;;21.69;40.83;100616.52;110479;1256;21969;-81
2022/07/09 16:25:29;;;;;;;3.40;1.50;;;;;;;21.64;40.91;100615.02;109551;1264;22093;-81
2022/07/09 16:28:43;;;;;;;;;;;;;;;;;;;;;
2022/07/09 16:31:46;;;;;;;;;;;;;;;;;;;;;
2022/07/09 16:34:54;;;;;;;2.00;1.00;;;;;;;21.60;41.75;100613.86;110333;1256;22458;-81
2022/07/09 16:38:14;;;;;;;5.40;1.50;;;;;;;21.61;41.80;100610.34;110417;1256;23044;-81
2022/07/09 16:41:11;;;;;;;3.30;1.40;;;;;;;21.62;41.81;100604.23;110361;1257;22499;-81